Time;durP1;ratioP1;P1;durP2;ratioP2;P2;SDS_P1;SDS_P2;PMS_P1;PMS_P2;Temp;Humidity;BMP_temperature;BMP_pressure;BME280_temperature;BME280_humidity;BME280_pressure;Samples;Min_cycle;Max_cycle;Signal;HPM_P1;HPM_P2
2021/05/27 00:00:41;;;;;;;15.83;9.93;;;10.70;99.90;;;-143.32;100.00;53252.97;6186729;23;20410;-88
2021/05/27 00:03:09;;;;;;;14.43;10.47;;;10.70;99.90;;;-143.32;100.00;53261.03;6186941;23;20390;-88
2021/05/27 00:05:35;;;;;;;11.93;9.67;;;10.70;99.90;;;-143.32;100.00;53252.97;6187147;23;20406;-88
2021/05/27 00:08:04;;;;;;;22.00;10.07;;;10.70;99.90;;;-143.32;100.00;53248.94;6187142;23;20405;-87
2021/05/27 00:10:33;;;;;;;12.20;9.03;;;10.70;99.90;;;-143.32;100.00;53230.75;6187236;23;20730;-86
2021/05/27 00:13:00;;;;;;;15.20;9.63;;;10.70;99.90;;;-143.32;100.00;53287.28;6186766;23;20917;-88
2021/05/27 00:15:31;;;;;;;12.47;8.90;;;10.70;99.90;;;-143.32;100.00;53285.28;6187550;23;20449;-86
2021/05/27 00:17:59;;;;;;;13.67;10.00;;;10.70;99.90;;;-143.32;100.00;53250.94;6187338;23;20734;-88
2021/05/27 00:20:27;;;;;;;16.47;9.77;;;10.70;99.90;;;-143.32;100.00;53279.22;6186723;23;20437;-87
2021/05/27 00:22:54;;;;;;;11.00;8.90;;;10.70;99.90;;;-143.32;100.00;53236.81;6187084;23;20476;-88
2021/05/27 00:25:21;;;;;;;14.67;8.67;;;10.70;99.90;;;-143.32;100.00;53265.09;6186641;23;20440;-88
2021/05/27 00:27:49;;;;;;;10.60;8.90;;;10.70;99.90;;;-143.32;100.00;53246.91;6187990;23;20417;-87
2021/05/27 00:30:18;;;;;;;13.30;9.20;;;10.70;99.90;;;-143.32;100.00;53238.81;6186576;23;20905;-88
2021/05/27 00:32:45;;;;;;;15.40;9.10;;;10.80;99.90;;;-143.32;100.00;53232.75;6187429;23;20703;-87
2021/05/27 00:35:12;;;;;;;11.87;8.70;;;10.80;99.90;;;-143.32;100.00;53222.66;6186494;23;20446;-87
2021/05/27 00:37:41;;;;;;;12.70;8.87;;;10.80;99.90;;;-143.32;100.00;53261.03;6186534;23;20456;-89
2021/05/27 00:40:11;;;;;;;11.90;9.13;;;10.80;99.90;;;-143.32;100.00;53275.19;6186869;23;20410;-87
2021/05/27 00:42:42;;;;;;;13.10;8.47;;;10.80;99.90;;;-143.32;100.00;53277.19;6186455;23;20397;-88
2021/05/27 00:45:15;;;;;;;14.70;9.47;;;10.80;99.90;;;-143.32;100.00;53293.34;6186795;23;20722;-87
2021/05/27 00:47:42;;;;;;;12.90;9.40;;;10.80;99.90;;;-143.32;100.00;53263.06;6186470;23;20480;-87
2021/05/27 00:50:20;;;;;;;17.20;10.17;;;10.70;99.90;;;-143.32;100.00;53265.09;6186711;23;20410;-89
2021/05/27 00:52:47;;;;;;;18.13;11.00;;;10.70;99.90;;;-143.32;100.00;53279.22;6186725;23;20412;-87
2021/05/27 00:55:15;;;;;;;17.07;12.40;;;10.70;99.90;;;-143.32;100.00;53279.22;6186612;23;20515;-87
2021/05/27 00:57:43;;;;;;;19.30;14.00;;;10.70;99.90;;;-143.32;100.00;53285.28;6186193;23;20413;-89
2021/05/27 01:00:13;;;;;;;19.70;13.20;;;10.70;99.90;;;-143.32;100.00;53295.38;6186341;23;20408;-88
2021/05/27 01:02:40;;;;;;;24.80;15.47;;;10.70;99.90;;;-143.32;100.00;53297.41;6186857;23;20911;-87
2021/05/27 01:05:10;;;;;;;24.70;14.90;;;10.70;99.90;;;-143.32;100.00;53269.13;6186603;23;20734;-89
2021/05/27 01:07:37;;;;;;;22.30;16.10;;;10.70;99.90;;;-143.32;100.00;53257.00;6186457;23;20756;-87
2021/05/27 01:13:45;;;;;;;31.23;19.53;;;10.70;99.90;;;-143.32;100.00;53269.13;6186348;23;20428;-87
2021/05/27 01:16:18;;;;;;;40.40;20.70;;;10.60;99.90;;;-143.32;100.00;53259.03;6186099;23;20477;-87
2021/05/27 01:18:45;;;;;;;35.60;22.70;;;10.50;99.90;;;-143.32;100.00;53234.78;6186829;23;20726;-88
2021/05/27 01:21:12;;;;;;;37.83;22.10;;;10.50;99.90;;;-143.32;100.00;53269.13;6186670;23;20402;-88
2021/05/27 01:23:40;;;;;;;36.03;23.87;;;10.50;99.90;;;-143.32;100.00;53196.41;6186204;23;20916;-88
2021/05/27 01:26:10;;;;;;;32.07;23.00;;;10.40;99.90;;;-143.32;100.00;53202.47;6186050;23;20417;-87
2021/05/27 01:28:37;;;;;;;37.73;26.13;;;10.40;99.90;;;-143.32;100.00;53216.59;6186056;23;20421;-87
2021/05/27 01:31:07;;;;;;;39.63;24.20;;;10.40;99.90;;;-143.32;100.00;53208.53;6186072;23;20444;-88
2021/05/27 01:33:35;;;;;;;38.93;25.37;;;10.40;99.90;;;-143.32;100.00;53208.53;6186091;23;20391;-87
2021/05/27 01:36:02;;;;;;;43.57;25.80;;;10.40;99.90;;;-143.32;100.00;53182.28;6185851;23;20481;-87
2021/05/27 01:38:31;;;;;;;40.90;25.63;;;10.40;99.90;;;-143.32;100.00;53202.47;6186350;23;20412;-88
2021/05/27 01:41:01;;;;;;;40.50;25.93;;;10.40;99.90;;;-143.32;100.00;53160.06;6185886;23;20406;-87
2021/05/27 01:43:27;;;;;;;44.90;26.73;;;10.40;99.90;;;-143.32;100.00;53131.78;6186278;23;20464;-88
2021/05/27 01:45:54;;;;;;;36.87;26.10;;;10.40;99.90;;;-143.32;100.00;53158.03;6185925;23;20402;-88
2021/05/27 01:48:21;;;;;;;53.10;27.30;;;10.40;99.90;;;-143.32;100.00;53117.66;6186279;23;20406;-88
2021/05/27 01:50:49;;;;;;;39.70;28.17;;;10.30;99.90;;;-143.32;100.00;53079.28;6186142;23;20417;-87
2021/05/27 01:53:18;;;;;;;38.70;26.87;;;10.30;99.90;;;-143.32;100.00;53020.72;6186603;23;20464;-88
2021/05/27 01:55:48;;;;;;;44.03;28.30;;;10.30;99.90;;;-143.32;100.00;52972.25;6185759;23;20520;-87
2021/05/27 01:58:16;;;;;;;41.47;28.13;;;10.20;99.90;;;-143.32;100.00;52921.75;6186347;23;20707;-88
2021/05/27 02:00:47;;;;;;;37.50;26.60;;;10.20;99.90;;;-143.32;100.00;52847.03;6186253;23;20480;-86
2021/05/27 02:03:13;;;;;;;37.23;26.60;;;10.20;99.90;;;-143.32;100.00;52748.09;6186268;23;20367;-86
2021/05/27 02:05:40;;;;;;;37.30;27.03;;;10.20;99.90;;;-143.32;100.00;52554.25;6185838;23;20881;-87
2021/05/27 02:08:07;;;;;;;44.23;28.43;;;10.00;99.90;;;-143.32;100.00;52408.84;6185878;23;20480;-87
2021/05/27 02:10:33;;;;;;;39.63;29.10;;;10.20;99.90;;;-143.32;100.00;52233.19;6187009;23;20948;-86
2021/05/27 02:13:00;;;;;;;41.10;28.73;;;10.20;99.90;;;-143.32;100.00;52045.44;6188426;23;20409;-88
2021/05/27 02:15:28;;;;;;;45.30;28.73;;;10.00;99.90;;;-143.32;100.00;51700.22;6187605;23;20453;-89
2021/05/27 02:17:55;;;;;;;48.07;30.67;;;10.20;99.90;;;-143.32;100.00;51508.44;6187824;23;20893;-89
2021/05/27 02:20:21;;;;;;;51.70;30.60;;;10.10;99.90;;;-143.32;100.00;51300.53;6188606;23;20452;-88
2021/05/27 02:22:48;;;;;;;50.33;30.93;;;10.10;99.90;;;-143.32;100.00;50997.78;6188141;23;20460;-88
2021/05/27 02:25:15;;;;;;;49.70;31.50;;;10.00;99.90;;;-143.32;100.00;50565.91;6187825;23;20406;-86
2021/05/27 02:27:42;;;;;;;51.57;31.93;;;10.00;99.90;;;-143.32;100.00;50156.25;6187734;23;20401;-88
2021/05/27 02:30:11;;;;;;;48.87;29.53;;;10.00;99.90;;;-143.32;100.00;49839.47;6188031;23;20401;-86
2021/05/27 02:32:41;;;;;;;48.30;26.17;;;10.00;99.90;;;-143.32;100.00;49621.59;6187541;23;20414;-89
2021/05/27 02:35:09;;;;;;;46.23;27.33;;;10.00;99.90;;;-143.32;100.00;49702.28;6188204;23;20434;-87
2021/05/27 02:37:36;;;;;;;45.20;26.03;;;9.90;99.90;;;-143.32;100.00;49659.94;6188506;23;20413;-87
2021/05/27 02:40:07;;;;;;;38.40;22.93;;;9.80;99.90;;;-143.32;100.00;49627.66;6187867;23;20410;-89
2021/05/27 02:42:34;;;;;;;46.40;22.70;;;9.80;99.90;;;-143.32;100.00;49583.25;6188063;23;20382;-88
2021/05/27 02:45:00;;;;;;;41.00;21.97;;;9.70;99.90;;;-143.32;100.00;49563.09;6187730;23;20410;-88
2021/05/27 02:47:27;;;;;;;54.07;22.03;;;9.70;99.90;;;-143.32;100.00;49450.13;6187859;23;20414;-89
2021/05/27 02:49:55;;;;;;;37.23;21.43;;;9.70;99.90;;;-143.32;100.00;49442.03;6187826;23;20390;-88
2021/05/27 02:52:21;;;;;;;38.80;21.73;;;9.60;99.90;;;-143.32;100.00;49393.63;6188792;23;20405;-89
2021/05/27 02:54:48;;;;;;;46.17;20.90;;;9.60;99.90;;;-143.32;100.00;49248.38;6187728;23;20446;-89
2021/05/27 02:57:15;;;;;;;36.00;20.03;;;9.60;99.90;;;-143.32;100.00;48970.00;6187778;23;20409;-86
2021/05/27 02:59:41;;;;;;;43.70;19.77;;;9.60;99.90;;;-143.32;100.00;48832.84;6187236;23;20742;-88
2021/05/27 03:02:08;;;;;;;41.67;19.80;;;9.60;99.90;;;-143.32;100.00;48596.88;6187756;23;20406;-88
2021/05/27 03:04:35;;;;;;;42.70;21.17;;;9.50;99.90;;;-143.32;100.00;48280.25;6187407;23;20402;-90
2021/05/27 03:07:02;;;;;;;52.23;20.50;;;9.60;99.90;;;-143.32;100.00;48110.84;6188473;23;20464;-88
2021/05/27 03:09:29;;;;;;;42.90;20.93;;;9.60;99.90;;;-143.32;100.00;48008.00;6187362;23;20393;-89
2021/05/27 03:11:57;;;;;;;42.70;22.17;;;9.60;99.90;;;-143.32;100.00;47846.69;6187720;23;20409;-87
2021/05/27 03:14:23;;;;;;;49.57;23.03;;;9.60;99.90;;;-143.32;100.00;47677.31;6187555;23;20445;-89
2021/05/27 03:16:50;;;;;;;45.57;22.13;;;9.50;99.90;;;-143.32;100.00;47542.22;6187777;23;20881;-87
2021/05/27 03:19:17;;;;;;;50.07;22.73;;;9.60;99.90;;;-143.32;100.00;47578.53;6187814;23;20414;-87
2021/05/27 03:21:43;;;;;;;39.40;22.90;;;9.50;99.90;;;-143.32;100.00;47580.53;6187233;23;20766;-87
2021/05/27 03:24:11;;;;;;;44.90;23.40;;;9.60;99.90;;;-143.32;100.00;47473.69;6187886;23;20436;-87
2021/05/27 03:26:38;;;;;;;50.00;23.63;;;9.40;99.90;;;-143.32;100.00;47328.50;6187381;23;20908;-88
2021/05/27 03:29:06;;;;;;;51.07;23.80;;;9.40;99.90;;;-143.32;100.00;47141.03;6187618;23;20460;-88
2021/05/27 03:31:32;;;;;;;46.03;22.33;;;9.40;99.90;;;-143.32;100.00;46911.22;6187460;23;20513;-89
2021/05/27 03:33:59;;;;;;;44.03;21.43;;;9.40;99.90;;;-143.32;100.00;46943.47;6187940;23;20397;-87
2021/05/27 03:36:26;;;;;;;54.00;22.30;;;9.40;99.90;;;-143.32;100.00;46766.06;6188402;23;20454;-87
2021/05/27 03:38:52;;;;;;;57.23;22.50;;;9.40;99.90;;;-143.32;100.00;46479.84;6187966;23;20405;-88
2021/05/27 03:41:20;;;;;;;56.13;22.90;;;9.40;99.90;;;-143.32;100.00;46268.22;6187063;23;20413;-87
2021/05/27 03:43:52;;;;;;;53.93;21.30;;;9.40;99.90;;;-143.32;100.00;46159.38;6186981;23;20413;-86
2021/05/27 03:46:19;;;;;;;48.80;21.40;;;9.50;99.90;;;-143.32;100.00;46254.09;6187990;23;20390;-87
2021/05/27 03:48:46;;;;;;;51.03;21.63;;;9.40;99.90;;;-143.32;100.00;46260.16;6187382;23;20406;-87
2021/05/27 03:51:12;;;;;;;44.17;20.07;;;9.40;99.90;;;-143.32;100.00;46403.25;6186771;23;20901;-87
2021/05/27 03:53:40;;;;;;;57.80;21.07;;;9.40;99.90;;;-143.32;100.00;46554.41;6187270;23;20707;-87
2021/05/27 03:56:07;;;;;;;49.13;19.90;;;9.30;99.90;;;-143.32;100.00;46598.75;6186725;23;20456;-86
2021/05/27 04:01:19;;;;;;;50.17;21.20;;;9.20;99.90;;;-143.32;100.00;46493.94;6187379;23;20466;-86
2021/05/27 04:09:15;;;;;;;46.17;19.00;;;9.20;99.90;;;-143.32;100.00;46056.59;6186828;23;20408;-87
2021/05/27 04:11:42;;;;;;;39.93;17.47;;;9.20;99.90;;;-143.32;100.00;46111.00;6186801;23;20398;-88
2021/05/27 04:14:10;;;;;;;38.50;16.13;;;9.20;99.90;;;-143.32;100.00;46290.38;6186762;23;20441;-87
2021/05/27 04:16:36;;;;;;;35.37;16.07;;;9.30;99.90;;;-143.32;100.00;46330.69;6186843;23;20454;-86
2021/05/27 04:19:04;;;;;;;37.93;15.20;;;9.20;99.90;;;-143.32;100.00;46421.38;6187042;23;20405;-86
2021/05/27 04:21:30;;;;;;;35.57;15.97;;;9.10;99.90;;;-143.32;100.00;46574.56;6186681;23;20692;-87
2021/05/27 04:23:57;;;;;;;40.13;15.93;;;9.10;99.90;;;-143.32;100.00;46475.81;6187043;23;20415;-87
2021/05/27 04:26:24;;;;;;;29.70;14.90;;;9.10;99.90;;;-143.32;100.00;46344.81;6187895;23;20402;-87
2021/05/27 04:28:50;;;;;;;39.63;16.17;;;9.10;99.90;;;-143.32;100.00;46195.66;6186973;23;20410;-86
2021/05/27 04:31:19;;;;;;;28.63;14.83;;;9.10;99.90;;;-143.32;100.00;46094.88;6186949;23;20742;-87
2021/05/27 04:33:55;;;;;;;43.33;16.43;;;9.10;99.90;;;-143.32;100.00;45800.66;6186002;23;20590;-86
2021/05/27 04:36:22;;;;;;;36.70;18.20;;;9.10;99.90;;;-143.32;100.00;45649.53;6187465;23;20445;-89
2021/05/27 04:38:51;;;;;;;45.20;18.90;;;9.10;99.90;;;-143.32;100.00;45159.88;6186394;23;20421;-88
2021/05/27 04:41:18;;;;;;;33.60;17.70;;;9.20;99.90;;;-143.32;100.00;45994.13;6186731;23;20773;-87
2021/05/27 04:43:47;;;;;;;36.27;17.73;;;9.10;99.90;;;-143.32;100.00;46880.97;6186593;23;20405;-88
2021/05/27 04:46:21;;;;;;;37.10;14.40;;;9.10;99.90;;;-143.32;100.00;47933.41;6187638;23;20698;-88
2021/05/27 04:48:47;;;;;;;50.97;17.83;;;9.00;99.90;;;-143.32;100.00;48022.13;6187213;23;20371;-87
2021/05/27 04:51:14;;;;;;;34.00;18.10;;;9.00;99.90;;;-143.32;100.00;47772.09;6186501;23;20394;-89
2021/05/27 04:53:41;;;;;;;46.03;18.97;;;9.00;99.90;;;-143.32;100.00;47651.09;6187543;23;20410;-87
2021/05/27 04:56:08;;;;;;;45.13;19.10;;;9.10;99.90;;;-143.32;100.00;47600.69;6186484;23;20924;-88
2021/05/27 04:58:34;;;;;;;39.13;17.77;;;9.10;99.90;;;-143.32;100.00;47681.34;6186150;23;20406;-89
2021/05/27 05:01:05;;;;;;;52.27;18.93;;;9.00;99.90;;;-143.32;100.00;47657.16;6186342;23;20406;-88
2021/05/27 05:03:33;;;;;;;38.90;18.50;;;9.10;99.90;;;-143.32;100.00;47505.94;6186367;23;20414;-88
2021/05/27 05:06:04;;;;;;;49.63;19.63;;;9.10;99.90;;;-143.32;100.00;47669.25;6197705;23;20440;-92
2021/05/27 05:28:16;;;;;;;;;;;;;;;;;;;;;
2021/05/27 08:43:43;;;;;;;47.83;24.00;;;9.80;99.90;;;-143.32;100.00;49115.25;5954337;24;20973;-85
2021/05/27 09:38:33;;;;;;;17.03;10.53;;;10.50;99.90;;;-143.32;100.00;49234.25;5738566;24;20435;-92
2021/05/27 09:49:10;;;;;;;24.53;9.17;;;10.40;99.90;;;-143.32;100.00;49353.28;5845683;24;20439;-92
2021/05/27 09:51:54;;;;;;;15.47;9.10;;;10.40;99.90;;;-143.32;100.00;49296.78;5835211;24;20417;-90
2021/05/27 09:55:00;;;;;;;23.67;10.20;;;10.30;99.90;;;-143.32;100.00;49333.09;5983407;23;20417;-91
2021/05/27 09:58:14;;;;;;;24.23;10.57;;;10.20;99.90;;;-143.32;100.00;49230.22;6166951;23;20414;-93
2021/05/27 10:05:21;;;;;;;24.00;10.00;;;10.40;99.90;;;-143.32;100.00;49244.34;6167381;23;20378;-90
2021/05/27 10:07:50;;;;;;;21.60;10.27;;;10.60;99.90;;;-143.32;100.00;49195.94;6165985;23;20410;-91
2021/05/27 10:10:20;;;;;;;18.10;10.10;;;10.80;99.90;;;-143.32;100.00;49246.38;6198932;23;20458;-92
2021/05/27 10:12:55;;;;;;;22.00;10.47;;;10.80;99.90;;;-143.32;100.00;49230.22;6197546;23;20456;-93
2021/05/27 10:15:33;;;;;;;14.83;9.90;;;10.80;99.90;;;-143.32;100.00;49238.28;6195848;23;20532;-92
2021/05/27 10:18:35;;;;;;;;;;;;;;;;;;;;;
2021/05/27 10:21:30;;;;;;;20.37;9.30;;;11.00;99.90;;;-143.32;100.00;49371.44;6187742;23;20429;-93
2021/05/27 10:24:03;;;;;;;21.80;9.43;;;11.00;99.90;;;-143.32;100.00;49405.72;6190953;23;20438;-92
2021/05/27 10:26:52;;;;;;;21.83;9.43;;;11.00;99.90;;;-143.32;100.00;49397.66;6194054;23;20413;-90
2021/05/27 10:30:14;;;;;;;;;;;;;;;;;;;;;
2021/05/27 10:33:19;;;;;;;15.73;9.10;;;10.80;99.90;;;-143.32;100.00;49450.13;6107027;23;20412;-92
2021/05/27 10:40:26;;;;;;;15.23;7.03;;;10.80;99.90;;;-143.32;100.00;49678.09;6140725;23;20467;-93
2021/05/27 10:47:22;;;;;;;24.27;9.00;;;10.40;99.90;;;-143.32;100.00;49565.09;6197710;22;20457;-92
2021/05/27 10:50:09;;;;;;;15.43;8.50;;;10.70;99.90;;;-143.32;100.00;49478.34;6199319;23;20424;-92
2021/05/27 11:24:32;;;;;;;16.70;8.27;;;11.00;99.90;;;-143.32;100.00;49504.59;6192551;23;20457;-92
2021/05/27 11:27:41;;;;;;;19.40;8.10;;;11.10;99.90;;;-143.32;100.00;49456.16;6211032;23;20398;-93
2021/05/27 11:30:22;;;;;;;19.57;8.70;;;11.30;99.90;;;-143.32;100.00;49532.81;6203057;23;20444;-92
2021/05/27 11:33:12;;;;;;;21.53;8.50;;;11.60;99.90;;;-143.32;100.00;49474.31;6176965;23;20490;-91
2021/05/27 11:35:56;;;;;;;22.43;8.47;;;11.90;99.90;;;-143.32;100.00;49585.28;6237663;23;20433;-93
2021/05/27 11:41:42;;;;;;;14.60;6.93;;;12.20;99.90;;;-143.32;100.00;49690.19;6209173;23;20543;-94
2021/05/27 11:44:11;;;;;;;24.43;8.30;;;12.10;99.90;;;-143.32;100.00;49704.31;6194682;23;20434;-89
2021/05/27 11:46:37;;;;;;;15.03;7.93;;;12.10;99.90;;;-143.32;100.00;49698.25;6187106;23;20417;-92
2021/05/27 11:49:07;;;;;;;16.27;7.73;;;12.20;99.90;;;-143.32;100.00;49712.38;6185877;23;20437;-91
2021/05/27 11:51:37;;;;;;;20.10;8.13;;;12.20;99.90;;;-143.32;100.00;49730.53;6194141;23;20420;-92
2021/05/27 11:54:07;;;;;;;16.00;7.80;;;12.10;99.90;;;-143.32;100.00;49750.72;6197539;23;20398;-90
2021/05/27 11:56:50;;;;;;;18.80;10.47;;;12.00;99.90;;;-143.32;100.00;49762.81;6191438;23;20797;-92
2021/05/27 11:59:26;;;;;;;21.80;10.70;;;11.70;99.90;;;-143.32;100.00;49706.31;6192030;23;20401;-91
2021/05/27 12:02:12;;;;;;;17.67;8.87;;;11.70;99.90;;;-143.32;100.00;49762.81;6198357;23;20417;-93
2021/05/27 12:08:15;;;;;;;19.90;10.90;;;11.10;99.90;;;-143.32;100.00;49736.59;6203801;23;20457;-92
2021/05/27 12:19:01;;;;;;;30.90;10.33;;;11.00;99.90;;;-143.32;100.00;49536.84;6117048;23;20404;-92
2021/05/27 12:28:16;;;;;;;32.30;11.50;;;11.00;99.90;;;-143.32;100.00;49542.91;6112448;23;20392;-93
2021/05/27 12:35:21;;;;;;;24.67;11.40;;;11.00;99.90;;;-143.32;100.00;49583.25;6067383;23;20444;-90
2021/05/27 12:37:50;;;;;;;23.67;9.90;;;10.90;99.90;;;-143.32;100.00;49593.34;6102281;23;20461;-89
2021/05/27 12:40:28;;;;;;;31.33;11.40;;;10.90;99.90;;;-143.32;100.00;49550.97;6186393;23;20410;-89
2021/05/27 12:42:57;;;;;;;28.40;11.40;;;11.00;99.90;;;-143.32;100.00;49506.59;6186474;23;20469;-86
2021/05/27 12:45:27;;;;;;;30.50;11.70;;;11.00;99.90;;;-143.32;100.00;49456.16;6186646;23;20532;-87
2021/05/27 12:48:16;;;;;;;26.40;12.60;;;11.10;99.90;;;-143.32;100.00;49415.81;6186743;23;20884;-88
2021/05/27 12:51:04;;;;;;;27.63;11.97;;;11.20;99.90;;;-143.32;100.00;49510.63;6187114;23;20381;-88
2021/05/27 12:53:35;;;;;;;23.20;12.83;;;11.10;99.90;;;-143.32;100.00;49470.28;6186718;23;20711;-88
2021/05/27 12:56:17;;;;;;;47.90;13.20;;;11.00;99.90;;;-143.32;100.00;49425.91;6186944;23;20727;-89
2021/05/27 12:59:10;;;;;;;31.20;11.33;;;11.10;99.90;;;-143.32;100.00;49407.75;6186090;23;20440;-90
2021/05/27 13:05:45;;;;;;;34.43;12.40;;;11.40;99.90;;;-143.32;100.00;49385.56;5980818;24;20425;-89
2021/05/27 13:08:55;;;;;;;30.27;13.93;;;11.60;99.90;;;-143.32;100.00;49316.97;5980818;24;20425;-87
2021/05/27 13:11:30;;;;;;;42.83;12.83;;;11.90;99.90;;;-143.32;100.00;49440.03;5981309;24;20869;-87
2021/05/27 13:14:00;;;;;;;36.13;11.23;;;11.90;99.90;;;-143.32;100.00;49498.53;5987041;24;20810;-92
2021/05/27 13:16:40;;;;;;;28.63;11.23;;;11.80;99.90;;;-143.32;100.00;49446.06;6110337;23;20456;-92
2021/05/27 13:19:10;;;;;;;23.20;12.17;;;11.80;99.90;;;-143.32;100.00;49440.03;6186184;23;20481;-87
2021/05/27 13:21:47;;;;;;;31.27;14.50;;;11.80;99.90;;;-143.32;100.00;49492.47;6185804;23;20421;-87
2021/05/27 13:24:31;;;;;;;29.43;12.13;;;11.80;99.90;;;-143.32;100.00;49649.84;6186113;23;20448;-87
2021/05/27 14:04:35;;;;;;;17.73;10.00;;;12.30;99.90;;;-143.32;100.00;49704.31;6027886;23;21013;-93
2021/05/27 14:10:45;;;;;;;22.37;10.40;;;12.40;99.90;;;-143.32;100.00;49629.66;6159870;23;20618;-92
2021/05/27 14:13:44;;;;;;;;;;;;;;;;;;;;;
2021/05/27 14:17:43;;;;;;;;;;;;;;;;;;;;;
2021/05/27 14:27:27;;;;;;;17.47;7.53;;;12.10;99.90;;;-143.32;100.00;49900.00;6086719;23;20377;-92
2021/05/27 14:44:41;;;;;;;13.27;7.23;;;13.00;99.90;;;-143.32;100.00;49865.72;6147147;23;20447;-92
2021/05/27 14:59:54;;;;;;;11.57;6.37;;;12.70;99.90;;;-143.32;100.00;50015.03;6183879;23;20404;-89
2021/05/27 15:02:20;;;;;;;18.83;5.97;;;12.50;99.90;;;-143.32;100.00;50006.94;6215908;23;20467;-89
2021/05/27 15:05:11;;;;;;;17.33;6.33;;;12.30;99.90;;;-143.32;100.00;49918.16;6215584;23;20409;-87
2021/05/27 15:07:43;;;;;;;18.73;6.47;;;12.20;99.90;;;-143.32;100.00;49966.59;6210410;23;20408;-92
2021/05/27 15:10:12;;;;;;;14.30;7.10;;;12.00;99.90;;;-143.32;100.00;49936.34;6215827;23;20520;-90
2021/05/27 15:12:43;;;;;;;13.93;6.57;;;11.90;99.90;;;-143.32;100.00;49944.41;6216382;23;20396;-92
2021/05/27 15:15:21;;;;;;;15.13;6.70;;;11.80;99.90;;;-143.32;100.00;49898.00;6215872;23;20425;-93
2021/05/27 15:26:30;;;;;;;15.63;6.80;;;11.60;99.90;;;-143.32;100.00;49770.88;6096573;23;20721;-89
2021/05/27 15:43:48;;;;;;;9.40;5.40;;;11.60;99.90;;;-143.32;100.00;49542.91;6057963;23;20408;-90
2021/05/27 15:46:44;;;;;;;10.50;6.00;;;11.70;99.90;;;-143.32;100.00;49427.91;6096191;23;20425;-90
2021/05/27 15:49:13;;;;;;;8.83;5.17;;;11.90;99.90;;;-143.32;100.00;49484.41;6087606;23;20420;-90
2021/05/27 15:52:09;;;;;;;12.37;5.60;;;11.90;99.90;;;-143.32;100.00;49534.84;6095825;23;20393;-91
2021/05/27 15:58:24;;;;;;;14.57;6.33;;;12.10;99.90;;;-143.32;100.00;49514.66;6216964;23;20399;-88
2021/05/27 16:00:55;;;;;;;14.80;6.07;;;12.20;99.90;;;-143.32;100.00;49504.59;6217944;23;20388;-89
2021/05/27 16:03:21;;;;;;;12.70;5.87;;;12.20;99.90;;;-143.32;100.00;49522.75;6216942;23;20856;-90
2021/05/27 16:05:51;;;;;;;13.93;7.07;;;12.20;99.90;;;-143.32;100.00;49555.00;6217301;23;20713;-90
2021/05/27 16:08:17;;;;;;;11.93;6.07;;;12.20;99.90;;;-143.32;100.00;49542.91;6217391;23;20404;-90
2021/05/27 16:10:44;;;;;;;14.87;6.03;;;12.20;99.90;;;-143.32;100.00;49599.41;6217343;23;20397;-91
2021/05/27 16:13:12;;;;;;;14.40;6.53;;;12.20;99.90;;;-143.32;100.00;49651.84;6216864;23;20396;-91
2021/05/27 16:15:38;;;;;;;13.13;5.93;;;12.10;99.90;;;-143.32;100.00;49623.59;6216535;23;20445;-90
2021/05/27 16:18:09;;;;;;;22.47;6.87;;;12.10;99.90;;;-143.32;100.00;49569.13;6217789;23;20412;-90
2021/05/27 16:20:36;;;;;;;18.90;6.50;;;12.20;99.90;;;-143.32;100.00;49583.25;6217379;23;20385;-88
2021/05/27 16:26:45;;;;;;;14.70;6.30;;;12.20;99.90;;;-143.32;100.00;49577.22;6217088;23;20415;-90
2021/05/27 16:29:12;;;;;;;12.23;5.93;;;12.30;99.90;;;-143.32;100.00;49540.91;6216707;23;20409;-90
2021/05/27 16:31:39;;;;;;;12.27;6.30;;;12.50;99.90;;;-143.32;100.00;49637.72;6217212;23;20896;-94
2021/05/27 16:34:09;;;;;;;14.03;5.30;;;12.60;99.90;;;-143.32;100.00;49659.94;6217742;23;20733;-89
2021/05/27 16:39:24;;;;;;;11.03;4.80;;;12.60;99.90;;;-143.32;100.00;49647.81;6216849;23;20737;-90
2021/05/27 16:41:50;;;;;;;18.50;5.87;;;12.60;99.90;;;-143.32;100.00;49665.97;6217004;23;20451;-89
2021/05/27 16:47:58;;;;;;;17.87;5.67;;;12.30;99.90;;;-143.32;100.00;49617.56;6216631;23;20372;-90
2021/05/27 16:50:29;;;;;;;14.10;5.63;;;12.30;99.90;;;-143.32;100.00;49663.97;6216470;23;20405;-90
2021/05/27 16:52:59;;;;;;;18.93;5.80;;;12.40;99.90;;;-143.32;100.00;49752.72;6216493;23;20484;-90
2021/05/27 16:55:29;;;;;;;15.17;5.47;;;12.30;99.90;;;-143.32;100.00;49785.00;6216301;23;20401;-91
2021/05/27 16:57:55;;;;;;;12.43;5.53;;;12.20;99.90;;;-143.32;100.00;49770.88;6216767;23;20896;-89
2021/05/27 17:00:23;;;;;;;20.03;5.80;;;12.10;99.90;;;-143.32;100.00;49762.81;6216342;23;20415;-90
2021/05/27 17:02:50;;;;;;;12.40;4.70;;;12.10;99.90;;;-143.32;100.00;49712.38;6217242;23;20760;-91
2021/05/27 17:05:17;;;;;;;14.33;5.03;;;12.30;99.90;;;-143.32;100.00;49720.44;6217660;23;20405;-89
2021/05/27 17:07:45;;;;;;;9.13;4.53;;;12.30;99.90;;;-143.32;100.00;49823.34;6216543;23;20411;-90
2021/05/27 17:10:12;;;;;;;20.17;4.90;;;12.20;99.90;;;-143.32;100.00;49774.94;6217507;23;20503;-90
2021/05/27 17:12:42;;;;;;;12.70;6.13;;;12.20;99.90;;;-143.32;100.00;49783.00;6216899;23;20425;-92
2021/05/27 17:15:25;;;;;;;7.80;3.87;;;12.20;99.90;;;-143.32;100.00;49791.06;6216246;23;20396;-91
2021/05/27 17:18:06;;;;;;;7.57;3.50;;;12.20;99.90;;;-143.32;100.00;49831.41;6202314;23;20420;-91
2021/05/27 18:55:30;;;;;;;16.37;6.60;;;10.90;99.90;;;-143.32;100.00;49605.44;6196910;23;20808;-93
2021/05/27 18:58:04;;;;;;;23.87;8.30;;;10.90;99.90;;;-143.32;100.00;49607.47;6195486;23;20865;-91
2021/05/27 19:00:36;;;;;;;17.23;8.67;;;10.90;99.90;;;-143.32;100.00;49538.88;6196696;23;20401;-93
2021/05/27 19:03:08;;;;;;;26.63;9.50;;;10.90;99.90;;;-143.32;100.00;49563.09;6197925;23;20710;-93
2021/05/27 19:05:35;;;;;;;17.70;9.00;;;10.90;99.90;;;-143.32;100.00;49553.00;6196516;23;20848;-92
2021/05/27 19:08:11;;;;;;;27.20;8.20;;;10.90;99.90;;;-143.32;100.00;49504.59;6192629;23;20412;-91
2021/05/27 19:10:49;;;;;;;29.33;9.03;;;11.00;99.90;;;-143.32;100.00;49494.50;6192137;23;20456;-92
2021/05/27 19:13:30;;;;;;;;;;;;;;;;;;;;;
2021/05/27 19:19:38;;;;;;;20.60;8.87;;;10.80;99.90;;;-143.32;100.00;49452.13;6194082;23;20389;-92
2021/05/27 19:22:05;;;;;;;19.40;8.00;;;10.80;99.90;;;-143.32;100.00;49423.88;6191960;23;20422;-93
2021/05/27 19:24:32;;;;;;;26.33;9.80;;;10.80;99.90;;;-143.32;100.00;49476.34;6190302;23;20406;-92
2021/05/27 19:27:01;;;;;;;24.90;9.03;;;10.80;99.90;;;-143.32;100.00;49470.28;6189712;23;20408;-93
2021/05/27 19:29:28;;;;;;;27.00;9.40;;;10.70;99.90;;;-143.32;100.00;49450.13;6189855;23;20398;-93
2021/05/27 19:31:55;;;;;;;22.60;8.90;;;10.70;99.90;;;-143.32;100.00;49401.69;6188487;23;20413;-92
2021/05/27 19:34:22;;;;;;;20.17;8.70;;;10.60;99.90;;;-143.32;100.00;49405.72;6189007;23;20713;-92
2021/05/27 19:36:54;;;;;;;28.73;9.87;;;10.60;99.90;;;-143.32;100.00;49343.19;6189549;23;20438;-93
2021/05/27 19:39:23;;;;;;;16.80;9.03;;;10.50;99.90;;;-143.32;100.00;49288.72;6189652;23;20870;-92
2021/05/27 19:41:50;;;;;;;23.30;9.73;;;10.60;99.90;;;-143.32;100.00;49290.75;6188860;23;20441;-92
2021/05/27 19:44:38;;;;;;;;;;;;;;;;;;;;;
2021/05/27 19:47:08;;;;;;;21.77;10.23;;;10.70;99.90;;;-143.32;100.00;49220.13;6187836;23;20883;-91
2021/05/27 19:49:41;;;;;;;20.83;10.03;;;10.70;99.90;;;-143.32;100.00;49218.13;6189297;23;20746;-91
2021/05/27 19:52:11;;;;;;;25.07;9.10;;;10.70;99.90;;;-143.32;100.00;49165.69;6192695;23;20480;-93
2021/05/27 19:54:44;;;;;;;22.90;9.17;;;10.60;99.90;;;-143.32;100.00;49193.91;6194087;23;20406;-92